Time;durP1;ratioP1;P1;durP2;ratioP2;P2;SDS_P1;SDS_P2;PMS_P1;PMS_P2;Temp;Humidity;BMP_temperature;BMP_pressure;BME280_temperature;BME280_humidity;BME280_pressure;Samples;Min_cycle;Max_cycle;Signal;HPM_P1;HPM_P2
2021/10/03 00:01:01;;;;;;;18.40;8.20;;;;;;;11.64;55.71;100774.63;5010921;28;20064;-68
2021/10/03 00:03:27;;;;;;;19.02;8.18;;;;;;;11.46;56.62;100768.38;5009212;28;20026;-68
2021/10/03 00:05:55;;;;;;;23.70;10.55;;;;;;;10.99;57.51;100770.91;5010425;28;20025;-68
2021/10/03 00:08:20;;;;;;;18.77;8.85;;;;;;;10.86;58.28;100759.75;5012187;28;20038;-68
2021/10/03 00:10:48;;;;;;;22.95;11.52;;;;;;;11.23;57.19;100767.00;5010889;28;20053;-68
2021/10/03 00:13:14;;;;;;;32.22;11.65;;;;;;;11.32;56.94;100748.44;5003642;28;20042;-68
2021/10/03 00:15:39;;;;;;;40.55;14.15;;;;;;;11.26;57.31;100762.25;5008530;28;20268;-68
2021/10/03 00:18:07;;;;;;;38.33;13.65;;;;;;;11.19;57.56;100763.78;5010219;28;20056;-68
2021/10/03 00:20:33;;;;;;;35.72;15.25;;;;;;;11.51;56.80;100761.69;5014817;28;20076;-68
2021/10/03 00:22:58;;;;;;;35.97;15.68;;;;;;;11.51;56.70;100750.22;5011253;28;20018;-68
2021/10/03 00:25:26;;;;;;;41.72;15.50;;;;;;;11.45;56.26;100764.06;5013497;28;20014;-68
2021/10/03 00:27:53;;;;;;;39.53;15.75;;;;;;;11.64;56.50;100764.03;4998127;28;20430;-68
2021/10/03 00:30:19;;;;;;;44.00;16.10;;;;;;;11.63;55.91;100751.72;5006624;28;20034;-68
2021/10/03 00:32:45;;;;;;;34.25;15.05;;;;;;;11.31;57.36;100767.97;5011177;28;20065;-68
2021/10/03 00:35:12;;;;;;;32.67;12.77;;;;;;;11.25;57.59;100765.88;4992897;28;20049;-68
2021/10/03 00:37:38;;;;;;;25.05;11.73;;;;;;;11.29;57.20;100766.44;5010274;28;20342;-70
2021/10/03 00:40:05;;;;;;;36.10;10.88;;;;;;;11.22;57.85;100767.97;5013421;28;20030;-70
2021/10/03 00:42:31;;;;;;;24.75;9.65;;;;;;;11.36;57.37;100762.25;5009891;28;20026;-70
2021/10/03 00:44:56;;;;;;;15.63;8.10;;;;;;;11.25;58.17;100767.69;5007216;28;20046;-70
2021/10/03 00:47:22;;;;;;;19.77;7.72;;;;;;;11.35;57.50;100764.06;5002762;28;20077;-70
2021/10/03 00:49:48;;;;;;;21.45;7.47;;;;;;;11.39;57.56;100762.78;5009028;28;20080;-70
2021/10/03 00:52:13;;;;;;;21.58;8.07;;;;;;;11.34;57.79;100751.78;5008246;28;20259;-70
2021/10/03 00:54:39;;;;;;;12.57;7.10;;;;;;;11.24;58.63;100756.25;5008896;28;20081;-70
2021/10/03 00:57:05;;;;;;;18.48;8.57;;;;;;;11.21;58.34;100745.94;5011027;28;20227;-70
2021/10/03 00:59:32;;;;;;;17.30;8.70;;;;;;;11.29;58.46;100759.31;5005856;28;20038;-70
2021/10/03 01:01:58;;;;;;;23.88;9.23;;;;;;;11.17;58.58;100758.63;5010306;28;20029;-70
2021/10/03 01:04:25;;;;;;;16.70;8.65;;;;;;;11.22;58.66;100760.88;5011610;28;20034;-70
2021/10/03 01:06:51;;;;;;;20.48;8.80;;;;;;;11.26;58.43;100748.16;5008155;28;20062;-70
2021/10/03 01:09:18;;;;;;;16.58;8.32;;;;;;;11.45;57.77;100758.75;5007505;28;20211;-70
2021/10/03 01:11:45;;;;;;;23.30;8.43;;;;;;;11.40;58.12;100753.84;5010874;28;20334;-70
2021/10/03 01:14:11;;;;;;;17.38;8.55;;;;;;;11.24;58.66;100752.78;5009659;28;20030;-70
2021/10/03 01:16:37;;;;;;;23.05;8.73;;;;;;;11.03;59.09;100753.75;5001737;28;20151;-70
2021/10/03 01:19:04;;;;;;;16.70;8.80;;;;;;;11.11;58.66;100753.06;5001049;28;20212;-70
2021/10/03 01:21:29;;;;;;;18.23;9.63;;;;;;;11.16;58.78;100748.16;5009272;28;20040;-70
2021/10/03 01:23:56;;;;;;;22.40;9.15;;;;;;;11.03;58.75;100739.69;5001677;28;20042;-70
2021/10/03 01:26:22;;;;;;;22.13;8.93;;;;;;;10.91;59.29;100738.16;5001331;28;20108;-70
2021/10/03 01:28:48;;;;;;;17.80;9.05;;;;;;;11.10;58.39;100735.47;5004868;28;20049;-70
2021/10/03 01:31:14;;;;;;;14.00;7.22;;;;;;;10.82;59.22;100732.72;5015995;28;20076;-70
2021/10/03 01:33:40;;;;;;;18.92;7.22;;;;;;;10.80;59.30;100726.72;5013467;28;20251;-70
2021/10/03 01:36:06;;;;;;;12.98;7.15;;;;;;;11.06;58.01;100726.97;5003087;28;20034;-70
2021/10/03 01:38:34;;;;;;;15.50;7.70;;;;;;;10.95;58.20;100728.94;5001786;28;20235;-70
2021/10/03 01:40:59;;;;;;;15.10;6.65;;;;;;;11.01;57.61;100723.09;5008700;28;20065;-70
2021/10/03 01:43:25;;;;;;;15.10;7.38;;;;;;;11.04;58.09;100730.75;5007458;28;20092;-70
2021/10/03 01:45:50;;;;;;;15.63;8.27;;;;;;;11.03;57.77;100723.78;5008962;28;20022;-70
2021/10/03 01:48:20;;;;;;;16.25;7.70;;;;;;;10.90;58.32;100712.63;4986223;28;20030;-70
2021/10/03 01:50:52;;;;;;;17.33;7.57;;;;;;;10.84;58.64;100719.31;5009332;28;20037;-70
2021/10/03 01:53:29;;;;;;;13.18;7.55;;;;;;;10.73;58.43;100703.56;5013116;28;20033;-70
2021/10/03 01:55:56;;;;;;;24.42;7.85;;;;;;;10.72;58.74;100728.38;5013516;28;20101;-70
2021/10/03 01:58:24;;;;;;;16.65;6.13;;;;;;;10.75;58.40;100721.00;5012860;28;20101;-70
2021/10/03 02:00:54;;;;;;;14.48;7.10;;;;;;;10.61;59.32;100726.72;4985861;28;20256;-70
2021/10/03 02:03:19;;;;;;;14.25;6.18;;;;;;;10.70;59.07;100728.53;5003969;28;20053;-70
2021/10/03 02:05:46;;;;;;;13.00;6.63;;;;;;;10.60;59.30;100732.97;5009035;28;20049;-70
2021/10/03 02:08:14;;;;;;;18.08;6.38;;;;;;;10.59;59.63;100743.72;5019229;28;20050;-70
2021/10/03 02:10:42;;;;;;;18.40;7.20;;;;;;;10.59;59.54;100744.56;5022079;28;20359;-70
2021/10/03 02:13:09;;;;;;;17.33;7.30;;;;;;;10.43;60.47;100737.16;5023574;28;20088;-70
2021/10/03 02:15:36;;;;;;;15.82;7.75;;;;;;;10.40;60.49;100737.41;5009791;28;20114;-70
2021/10/03 02:18:06;;;;;;;16.52;8.00;;;;;;;10.49;60.57;100739.25;5005088;28;20111;-70
2021/10/03 02:20:32;;;;;;;19.08;7.95;;;;;;;10.50;60.55;100742.72;5008379;28;20084;-70
2021/10/03 02:22:58;;;;;;;20.52;8.27;;;;;;;10.48;60.24;100720.84;5016627;28;20029;-70
2021/10/03 02:25:23;;;;;;;21.67;8.63;;;;;;;10.48;60.56;100724.34;5015953;28;20332;-70
2021/10/03 02:27:50;;;;;;;18.27;9.65;;;;;;;10.63;60.72;100738.00;5015624;28;20017;-70
2021/10/03 02:30:15;;;;;;;20.88;8.55;;;;;;;10.64;60.66;100731.72;5011867;28;20046;-70
2021/10/03 02:32:41;;;;;;;18.50;8.77;;;;;;;10.65;60.08;100721.97;5023300;28;20140;-70
2021/10/03 02:35:10;;;;;;;15.98;8.52;;;;;;;10.55;60.91;100727.25;5021977;28;20033;-70
2021/10/03 02:37:36;;;;;;;14.43;8.13;;;;;;;10.62;60.16;100725.75;5008347;28;20038;-70
2021/10/03 02:40:02;;;;;;;18.42;9.20;;;;;;;10.45;60.89;100708.72;5022382;28;20354;-69
2021/10/03 02:42:28;;;;;;;16.00;9.88;;;;;;;10.41;61.04;100717.91;5023002;28;20041;-70
2021/10/03 02:44:53;;;;;;;17.35;8.98;;;;;;;10.58;60.14;100720.84;5011495;28;20030;-70
2021/10/03 02:47:19;;;;;;;16.17;9.27;;;;;;;10.51;60.64;100726.69;5008889;28;20026;-70
2021/10/03 02:49:45;;;;;;;21.45;9.02;;;;;;;10.58;60.18;100719.03;5021810;28;20041;-69
2021/10/03 02:52:13;;;;;;;16.23;8.07;;;;;;;10.58;60.34;100726.16;5022971;28;20044;-69
2021/10/03 02:54:39;;;;;;;16.38;8.60;;;;;;;10.37;60.94;100728.88;5014795;28;20065;-69
2021/10/03 02:57:06;;;;;;;17.70;9.20;;;;;;;10.60;60.03;100716.25;5011566;28;20030;-70
2021/10/03 02:59:32;;;;;;;21.30;9.38;;;;;;;10.50;59.94;100724.19;5009682;28;20072;-70
2021/10/03 03:01:58;;;;;;;25.85;9.02;;;;;;;10.43;60.50;100723.91;5009989;28;20026;-70
2021/10/03 03:04:24;;;;;;;19.95;8.57;;;;;;;10.39;60.94;100717.19;5011325;28;20038;-70
2021/10/03 03:06:50;;;;;;;22.15;8.63;;;;;;;10.30;61.65;100715.34;5019932;28;20335;-70
2021/10/03 03:09:15;;;;;;;17.23;8.45;;;;;;;10.12;61.70;100709.84;5022346;28;20042;-70
2021/10/03 03:11:41;;;;;;;16.52;8.20;;;;;;;10.20;61.81;100717.97;5003687;28;20040;-70
2021/10/03 03:14:06;;;;;;;16.95;8.43;;;;;;;10.19;61.70;100720.72;5023578;28;20034;-70
2021/10/03 03:16:32;;;;;;;15.80;7.80;;;;;;;10.40;61.36;100726.81;5014646;28;20113;-70
2021/10/03 03:18:57;;;;;;;17.70;7.85;;;;;;;10.43;60.80;100729.19;5011428;28;20060;-70
2021/10/03 03:21:22;;;;;;;18.73;9.35;;;;;;;10.46;60.65;100723.63;5007826;28;20368;-70
2021/10/03 03:23:48;;;;;;;20.35;8.55;;;;;;;10.27;60.90;100726.22;5005785;28;20034;-70
2021/10/03 03:26:14;;;;;;;17.35;8.98;;;;;;;10.28;60.46;100713.81;5008059;28;20246;-70
2021/10/03 03:28:40;;;;;;;19.33;9.35;;;;;;;10.31;60.62;100732.91;5003323;28;20049;-70
2021/10/03 03:31:05;;;;;;;21.17;10.50;;;;;;;10.26;61.00;100735.13;5003173;28;20089;-70
2021/10/03 03:33:31;;;;;;;20.98;9.80;;;;;;;10.21;61.01;100737.34;5006157;28;20100;-70
2021/10/03 03:35:56;;;;;;;20.52;10.50;;;;;;;10.18;61.11;100737.59;5016725;28;20212;-70
2021/10/03 03:38:22;;;;;;;21.00;10.55;;;;;;;10.14;61.28;100744.13;5007260;28;20319;-70
2021/10/03 03:40:48;;;;;;;19.55;9.45;;;;;;;9.97;62.15;100750.06;5008473;28;20030;-70
2021/10/03 03:43:13;;;;;;;19.00;10.05;;;;;;;10.10;61.33;100745.34;5013229;28;20110;-70
2021/10/03 03:45:39;;;;;;;26.30;9.80;;;;;;;9.92;61.86;100742.50;5005582;28;20192;-70
2021/10/03 03:48:05;;;;;;;20.67;9.40;;;;;;;9.89;62.21;100742.78;5014595;28;20034;-70
2021/10/03 03:50:32;;;;;;;22.10;9.95;;;;;;;9.93;62.35;100741.53;5004910;28;20065;-70
2021/10/03 03:52:58;;;;;;;21.92;10.25;;;;;;;9.96;61.89;100740.44;5007462;28;20022;-70
2021/10/03 03:55:23;;;;;;;20.45;10.48;;;;;;;10.01;61.80;100739.06;5014092;28;20587;-70
2021/10/03 03:57:51;;;;;;;20.08;10.77;;;;;;;10.06;61.34;100744.78;5013226;28;20026;-70
2021/10/03 04:00:18;;;;;;;19.10;10.02;;;;;;;9.96;62.09;100746.56;5010248;28;20050;-70
2021/10/03 04:02:43;;;;;;;17.13;9.20;;;;;;;9.86;62.50;100748.34;5010433;28;20053;-70
2021/10/03 04:05:09;;;;;;;21.88;10.13;;;;;;;10.09;61.78;100752.47;5011847;28;20129;-70
2021/10/03 04:07:34;;;;;;;18.42;9.25;;;;;;;10.14;61.24;100752.91;5016270;28;20068;-70
2021/10/03 04:10:00;;;;;;;19.95;9.02;;;;;;;10.02;61.61;100753.13;5013140;28;20049;-70
2021/10/03 04:12:26;;;;;;;21.73;10.07;;;;;;;9.99;61.59;100753.41;5011290;28;20088;-70
2021/10/03 04:14:51;;;;;;;16.40;9.00;;;;;;;9.90;61.86;100750.59;5015340;28;20038;-70
2021/10/03 04:17:17;;;;;;;13.10;7.85;;;;;;;9.74;62.60;100744.94;5010946;28;20038;-69
2021/10/03 04:19:42;;;;;;;15.75;8.05;;;;;;;9.91;61.77;100754.06;5005552;28;20401;-69
2021/10/03 04:22:08;;;;;;;18.10;8.88;;;;;;;9.70;61.99;100743.53;5006409;28;20058;-69
2021/10/03 04:24:33;;;;;;;21.15;8.05;;;;;;;9.75;62.27;100749.25;5001313;28;20105;-69
2021/10/03 04:26:59;;;;;;;18.48;7.95;;;;;;;9.73;62.61;100745.06;5001243;28;20097;-69
2021/10/03 04:29:24;;;;;;;15.57;7.45;;;;;;;9.69;62.85;100755.09;5011785;28;20312;-70
2021/10/03 04:31:50;;;;;;;16.70;7.43;;;;;;;9.76;62.68;100747.47;5013243;28;20418;-70
2021/10/03 04:34:15;;;;;;;15.18;7.38;;;;;;;9.68;63.04;100752.56;5011946;28;20351;-70
2021/10/03 04:36:41;;;;;;;19.15;7.95;;;;;;;9.79;62.86;100755.97;5019981;28;20045;-70
2021/10/03 04:39:06;;;;;;;13.23;7.70;;;;;;;9.93;62.18;100758.25;5020751;28;20037;-70
2021/10/03 04:41:32;;;;;;;15.20;8.20;;;;;;;9.91;62.31;100754.06;5007460;28;20033;-69
2021/10/03 04:43:57;;;;;;;17.75;8.50;;;;;;;10.04;61.95;100765.25;5007057;28;20068;-69
2021/10/03 04:46:23;;;;;;;14.65;7.82;;;;;;;9.96;62.18;100761.59;5010421;28;20045;-70
2021/10/03 04:48:48;;;;;;;14.93;7.47;;;;;;;9.97;62.41;100763.28;5010792;28;20072;-70
2021/10/03 04:51:14;;;;;;;13.77;7.22;;;;;;;10.03;62.02;100768.03;5005823;28;20042;-70
2021/10/03 04:53:39;;;;;;;15.60;7.93;;;;;;;10.22;61.27;100768.97;5013681;28;20037;-70
2021/10/03 04:56:05;;;;;;;13.52;7.05;;;;;;;10.19;61.68;100763.91;5012685;28;20088;-70
2021/10/03 04:58:30;;;;;;;20.52;8.88;;;;;;;10.08;61.68;100765.81;5017292;28;20315;-70
2021/10/03 05:00:56;;;;;;;13.43;6.97;;;;;;;10.05;62.56;100772.22;5006746;28;20034;-70
2021/10/03 05:03:21;;;;;;;12.88;7.97;;;;;;;10.33;61.01;100764.53;5000941;28;20040;-70
2021/10/03 05:05:47;;;;;;;20.30;7.38;;;;;;;10.44;60.72;100773.25;5004928;28;20042;-70
2021/10/03 05:08:13;;;;;;;17.60;7.32;;;;;;;10.35;61.03;100767.88;5008484;28;20057;-70
2021/10/03 05:10:39;;;;;;;15.15;7.88;;;;;;;10.58;60.91;100774.66;5015378;28;20026;-70
2021/10/03 05:13:05;;;;;;;17.85;8.50;;;;;;;10.74;59.60;100779.41;5002983;28;20037;-70
2021/10/03 05:15:31;;;;;;;19.23;8.50;;;;;;;10.64;60.30;100776.75;5011205;28;20350;-70
2021/10/03 05:17:56;;;;;;;17.38;7.53;;;;;;;10.52;60.70;100778.69;5013302;28;20085;-70
2021/10/03 05:20:22;;;;;;;20.17;8.07;;;;;;;10.77;60.20;100785.28;5002096;28;20038;-70
2021/10/03 05:22:47;;;;;;;21.63;7.95;;;;;;;10.85;60.34;100789.88;5000921;28;20069;-70
2021/10/03 05:25:13;;;;;;;17.35;8.23;;;;;;;10.85;59.94;100792.53;5010077;28;20132;-70
2021/10/03 05:27:38;;;;;;;14.68;7.30;;;;;;;10.94;59.86;100790.88;5009788;28;20030;-70
2021/10/03 05:30:04;;;;;;;19.55;7.70;;;;;;;10.84;60.18;100793.50;5017098;28;20049;-70
2021/10/03 05:32:29;;;;;;;17.13;8.55;;;;;;;10.87;60.34;100793.22;5021587;28;20045;-70
2021/10/03 05:34:55;;;;;;;16.30;7.07;;;;;;;11.01;59.94;100799.94;5021761;28;20042;-70
2021/10/03 05:37:20;;;;;;;17.77;7.43;;;;;;;10.97;60.55;100793.25;5024033;28;20263;-70
2021/10/03 05:39:46;;;;;;;19.23;8.30;;;;;;;11.25;59.21;100799.50;5007759;28;20247;-70
2021/10/03 05:42:11;;;;;;;13.52;7.50;;;;;;;11.43;59.61;100801.31;5008049;28;20034;-68
2021/10/03 05:44:37;;;;;;;10.98;6.53;;;;;;;11.85;57.60;100797.50;5007780;28;20252;-68
2021/10/03 05:47:03;;;;;;;13.20;8.85;;;;;;;12.00;56.97;100799.53;5025249;28;20026;-68
2021/10/03 05:49:28;;;;;;;13.15;7.85;;;;;;;12.25;57.00;100792.72;5025020;28;20075;-68
2021/10/03 05:51:53;;;;;;;13.45;6.25;;;;;;;12.53;56.23;100782.97;5025314;28;20081;-68
2021/10/03 05:54:19;;;;;;;14.05;6.40;;;;;;;12.66;55.53;100787.91;5025019;28;20109;-68
2021/10/03 05:56:44;;;;;;;18.88;7.40;;;;;;;12.67;56.00;100801.03;5025589;28;20032;-68
2021/10/03 05:59:12;;;;;;;13.32;7.65;;;;;;;12.97;55.18;100797.19;5025269;28;20025;-68
2021/10/03 06:01:39;;;;;;;16.40;7.50;;;;;;;13.10;54.54;100800.31;5025013;28;20017;-69
2021/10/03 06:04:05;;;;;;;17.17;7.75;;;;;;;13.26;54.72;100799.63;5024843;28;20030;-68
2021/10/03 06:06:31;;;;;;;12.18;7.55;;;;;;;12.73;54.82;100765.06;5024750;28;20041;-70
2021/10/03 06:08:56;;;;;;;15.30;6.97;;;;;;;13.04;55.13;100802.75;5024988;28;20085;-70
2021/10/03 06:11:22;;;;;;;15.07;7.60;;;;;;;13.38;54.12;100797.56;5024659;28;20041;-70
2021/10/03 06:13:47;;;;;;;16.02;7.43;;;;;;;13.84;53.27;100800.91;5024863;28;20034;-70
2021/10/03 06:16:13;;;;;;;17.08;6.85;;;;;;;14.48;50.91;100803.06;5024623;28;20045;-70
2021/10/03 06:18:38;;;;;;;13.55;6.68;;;;;;;14.41;50.31;100772.69;5022361;28;20064;-70
2021/10/03 06:21:11;;;;;;;11.05;6.43;;;;;;;14.33;51.10;100801.97;5004742;28;20343;-70
2021/10/03 06:23:37;;;;;;;22.17;7.80;;;;;;;14.45;51.69;100805.22;5004602;28;20034;-70
2021/10/03 06:26:02;;;;;;;13.10;7.85;;;;;;;14.51;51.35;100805.41;4991661;28;20053;-70
2021/10/03 06:28:28;;;;;;;12.45;7.50;;;;;;;15.06;50.25;100809.41;5004945;28;20050;-70
2021/10/03 06:30:53;;;;;;;11.70;7.22;;;;;;;15.49;49.27;100805.56;5004941;28;20288;-70
2021/10/03 06:33:18;;;;;;;15.23;10.60;;;;;;;15.67;48.61;100814.28;5010357;28;20041;-68
2021/10/03 06:35:44;;;;;;;14.40;10.68;;;;;;;15.84;47.97;100810.59;5021803;28;20061;-68
2021/10/03 06:38:09;;;;;;;17.80;12.93;;;;;;;16.33;46.72;100815.78;5023156;28;20105;-68
2021/10/03 06:40:35;;;;;;;15.45;9.45;;;;;;;16.27;47.40;100803.09;5016535;28;20219;-68
2021/10/03 06:43:00;;;;;;;15.32;6.82;;;;;;;16.49;46.70;100804.19;4993754;28;20147;-68
2021/10/03 06:45:26;;;;;;;13.85;6.88;;;;;;;16.93;45.22;100804.47;4994301;28;20021;-68
2021/10/03 06:47:51;;;;;;;9.77;6.20;;;;;;;16.97;45.13;100799.59;5013411;28;20018;-68
2021/10/03 06:50:17;;;;;;;6.25;4.28;;;;;;;17.48;43.85;100803.38;5022718;28;20075;-68
2021/10/03 06:52:42;;;;;;;9.32;4.57;;;;;;;17.39;42.80;100802.63;5021922;28;20243;-68
2021/10/03 06:55:08;;;;;;;11.32;5.32;;;;;;;17.69;42.34;100800.06;5008968;28;20034;-68
2021/10/03 06:57:33;;;;;;;9.35;5.20;;;;;;;17.72;41.84;100803.22;5014175;28;20041;-68
2021/10/03 07:00:01;;;;;;;9.65;5.18;;;;;;;17.91;41.48;100801.00;5015428;28;20120;-68
2021/10/03 07:02:28;;;;;;;13.02;7.47;;;;;;;17.84;42.16;100799.06;5011378;28;20360;-68
2021/10/03 07:04:54;;;;;;;11.60;4.38;;;;;;;17.86;41.73;100799.72;5017009;28;20226;-68
2021/10/03 07:07:20;;;;;;;7.95;3.78;;;;;;;17.78;42.12;100790.94;5016122;28;20057;-67
2021/10/03 07:09:46;;;;;;;8.60;5.93;;;;;;;17.98;42.05;100802.78;5010594;28;20032;-68
2021/10/03 07:12:12;;;;;;;10.23;4.95;;;;;;;18.37;41.38;100802.47;5002925;28;20382;-68
2021/10/03 07:14:38;;;;;;;10.63;5.15;;;;;;;18.52;40.43;100797.91;5010553;28;20050;-68
2021/10/03 07:17:04;;;;;;;11.75;5.65;;;;;;;18.48;40.44;100796.63;5009744;28;20106;-70
2021/10/03 07:19:29;;;;;;;11.43;4.30;;;;;;;18.84;39.58;100787.81;5010736;28;20294;-69
2021/10/03 07:21:55;;;;;;;7.75;4.07;;;;;;;19.04;38.76;100785.31;5010806;28;20038;-69
2021/10/03 07:24:21;;;;;;;8.40;4.00;;;;;;;19.18;38.77;100795.16;5002619;28;20053;-68
2021/10/03 07:26:47;;;;;;;10.00;5.20;;;;;;;18.68;39.39;100793.38;5007946;28;20022;-69
2021/10/03 07:29:12;;;;;;;6.80;3.47;;;;;;;18.39;39.33;100781.66;5008865;28;20097;-69
2021/10/03 07:31:37;;;;;;;13.13;4.53;;;;;;;18.46;40.03;100795.97;5009986;28;20053;-69
2021/10/03 07:34:03;;;;;;;10.88;4.25;;;;;;;18.74;38.72;100793.47;5016528;28;20346;-69
2021/10/03 07:36:29;;;;;;;10.88;3.67;;;;;;;19.00;38.48;100800.16;4990827;28;20029;-69
2021/10/03 07:38:54;;;;;;;6.80;3.80;;;;;;;18.99;38.20;100787.75;5013081;28;20030;-69
2021/10/03 07:41:21;;;;;;;10.60;3.72;;;;;;;18.54;39.52;100796.88;5012073;28;20029;-69
2021/10/03 07:43:48;;;;;;;7.10;4.60;;;;;;;18.96;38.26;100785.44;5018886;28;20191;-69
2021/10/03 07:46:16;;;;;;;8.30;3.22;;;;;;;19.13;37.71;100800.28;5004721;28;20064;-69
2021/10/03 07:48:42;;;;;;;9.70;4.00;;;;;;;19.74;36.52;100798.75;5007726;28;20069;-69
2021/10/03 07:51:10;;;;;;;9.75;4.35;;;;;;;20.07;35.91;100782.84;5023118;28;20246;-69
2021/10/03 07:53:35;;;;;;;9.20;4.55;;;;;;;20.03;36.14;100800.41;5022637;28;20033;-71
2021/10/03 07:56:01;;;;;;;7.80;3.97;;;;;;;20.48;35.36;100798.16;5023122;28;20028;-68
2021/10/03 07:58:26;;;;;;;9.77;4.15;;;;;;;20.83;34.93;100785.47;5022875;28;20045;-71
2021/10/03 08:00:52;;;;;;;12.02;4.00;;;;;;;21.13;34.20;100785.09;5022251;28;20026;-71
2021/10/03 08:03:17;;;;;;;5.95;3.67;;;;;;;21.19;33.86;100786.97;5022654;28;20022;-71
2021/10/03 08:05:44;;;;;;;6.28;4.05;;;;;;;21.23;33.83;100781.00;5026650;28;20202;-69
2021/10/03 08:08:10;;;;;;;9.73;4.28;;;;;;;20.87;34.75;100780.50;5031793;28;20060;-71
2021/10/03 08:10:36;;;;;;;10.68;3.72;;;;;;;20.94;34.69;100775.97;5022163;28;20033;-71
2021/10/03 08:13:02;;;;;;;8.77;4.20;;;;;;;20.78;34.75;100777.16;5022671;28;20029;-71
2021/10/03 08:15:28;;;;;;;11.98;4.30;;;;;;;21.19;33.66;100768.94;5022295;28;20080;-71
2021/10/03 08:17:54;;;;;;;10.50;4.20;;;;;;;20.95;34.48;100772.25;5022639;28;20030;-71
2021/10/03 08:20:21;;;;;;;16.88;4.40;;;;;;;21.38;33.65;100774.56;5022708;28;20025;-71
2021/10/03 08:22:48;;;;;;;6.65;3.80;;;;;;;21.30;33.88;100756.75;5022400;28;20025;-71
2021/10/03 08:25:14;;;;;;;6.63;3.88;;;;;;;21.47;33.44;100773.31;5022894;28;20044;-68
2021/10/03 08:27:40;;;;;;;4.85;3.58;;;;;;;21.29;33.14;100757.78;5022374;28;20232;-68
2021/10/03 08:30:09;;;;;;;10.82;4.00;;;;;;;21.07;33.69;100767.06;5022522;28;20331;-68
2021/10/03 08:32:35;;;;;;;12.50;4.60;;;;;;;21.09;33.93;100768.53;5022326;28;20197;-68
2021/10/03 08:35:02;;;;;;;10.27;3.90;;;;;;;20.80;34.29;100768.88;5022086;28;20052;-70
2021/10/03 08:37:28;;;;;;;11.48;4.70;;;;;;;21.02;33.86;100763.13;5022120;28;20026;-71
2021/10/03 08:39:53;;;;;;;7.13;3.88;;;;;;;21.31;33.07;100769.19;5004335;28;20117;-70
2021/10/03 08:42:19;;;;;;;11.02;3.80;;;;;;;21.58;32.87;100768.13;5022312;28;20021;-71
2021/10/03 08:44:45;;;;;;;8.32;3.92;;;;;;;21.55;32.50;100762.34;5022109;28;20323;-70
2021/10/03 08:47:11;;;;;;;7.85;3.33;;;;;;;21.54;32.94;100761.50;5022169;28;20064;-70
2021/10/03 08:49:38;;;;;;;8.82;3.95;;;;;;;21.56;32.90;100758.59;5022183;28;20037;-71
2021/10/03 08:52:05;;;;;;;10.02;3.80;;;;;;;21.49;33.25;100760.47;5022111;28;20026;-70
2021/10/03 08:54:37;;;;;;;8.95;4.70;;;;;;;21.62;33.17;100761.28;5022041;28;20303;-70
2021/10/03 08:57:04;;;;;;;9.30;4.82;;;;;;;21.66;33.38;100750.91;5020099;28;20327;-71
2021/10/03 08:59:29;;;;;;;9.77;4.25;;;;;;;21.34;34.24;100753.44;5008631;28;20069;-70
2021/10/03 09:01:58;;;;;;;16.35;5.13;;;;;;;21.30;33.74;100749.50;5002373;28;20038;-71
2021/10/03 09:04:35;;;;;;;14.25;4.50;;;;;;;21.13;33.98;100758.16;5000923;28;20077;-70
2021/10/03 09:07:05;;;;;;;10.55;4.10;;;;;;;20.98;34.16;100716.13;5007214;28;20053;-70
2021/10/03 09:09:50;;;;;;;11.65;4.40;;;;;;;21.12;34.42;100743.88;5011943;28;20139;-70
2021/10/03 09:12:30;;;;;;;9.70;3.90;;;;;;;21.25;34.69;100740.38;5020417;28;20041;-70
2021/10/03 09:14:56;;;;;;;7.57;4.10;;;;;;;21.13;34.20;100739.31;5018039;28;20034;-70
2021/10/03 09:17:23;;;;;;;6.50;4.10;;;;;;;21.17;34.51;100736.00;5022729;28;20339;-70
2021/10/03 09:20:11;;;;;;;15.15;4.75;;;;;;;21.24;33.72;100727.97;5020958;28;20038;-68
2021/10/03 09:23:02;;;;;;;6.47;3.70;;;;;;;21.07;33.81;100724.81;5009207;28;20046;-70
2021/10/03 09:25:42;;;;;;;7.43;3.72;;;;;;;21.02;34.39;100728.13;5006554;28;20054;-68
2021/10/03 09:28:15;;;;;;;9.23;3.67;;;;;;;21.00;34.72;100724.00;5018048;28;20033;-70
2021/10/03 09:30:59;;;;;;;9.55;3.78;;;;;;;20.53;35.25;100723.06;5014971;28;20042;-70
2021/10/03 09:33:25;;;;;;;13.07;3.80;;;;;;;20.58;34.97;100722.44;5018311;28;20070;-70
2021/10/03 09:36:00;;;;;;;7.82;4.10;;;;;;;20.50;34.74;100728.00;5009943;28;20030;-68
2021/10/03 09:38:28;;;;;;;10.50;4.20;;;;;;;20.51;35.70;100719.75;5016604;28;20050;-68
2021/10/03 09:41:02;;;;;;;11.55;3.72;;;;;;;20.38;35.85;100717.81;5010608;28;20033;-69
2021/10/03 09:43:58;;;;;;;9.65;3.47;;;;;;;20.45;36.33;100703.59;5018255;28;20116;-70
2021/10/03 09:46:38;;;;;;;11.35;4.45;;;;;;;20.62;35.17;100712.94;5006131;28;20081;-70
2021/10/03 09:49:13;;;;;;;7.47;3.60;;;;;;;20.76;34.26;100700.31;5014414;28;20361;-68
2021/10/03 09:51:42;;;;;;;6.03;3.75;;;;;;;20.32;35.57;100702.47;5024211;28;20100;-70
2021/10/03 09:54:08;;;;;;;10.40;4.13;;;;;;;20.52;35.27;100699.03;5015508;28;20030;-68
2021/10/03 09:56:35;;;;;;;10.48;3.42;;;;;;;20.26;35.08;100680.94;5013672;28;20343;-71
2021/10/03 09:59:01;;;;;;;9.02;3.05;;;;;;;20.43;35.12;100693.03;5008047;28;20042;-70
2021/10/03 10:01:38;;;;;;;7.95;3.33;;;;;;;20.33;34.83;100703.31;5012479;28;20037;-70
2021/10/03 10:04:08;;;;;;;9.38;3.80;;;;;;;20.20;34.87;100701.41;5010510;28;20050;-68
2021/10/03 10:06:35;;;;;;;7.65;2.97;;;;;;;20.23;34.62;100686.72;5018665;28;20026;-68
2021/10/03 10:09:15;;;;;;;9.93;3.60;;;;;;;20.26;35.31;100680.94;5015505;28;20062;-68
2021/10/03 10:11:49;;;;;;;8.38;2.97;;;;;;;20.15;35.43;100674.28;5013862;28;20060;-68
2021/10/03 10:14:16;;;;;;;7.75;3.08;;;;;;;20.26;35.65;100676.41;5018801;28;21114;-68
2021/10/03 10:16:44;;;;;;;8.82;3.60;;;;;;;20.11;36.05;100674.91;5016019;28;20022;-68
2021/10/03 10:19:28;;;;;;;15.40;4.20;;;;;;;20.06;35.19;100683.56;5015887;28;20034;-68
2021/10/03 10:22:11;;;;;;;9.60;2.70;;;;;;;20.09;35.59;100672.41;5017107;28;20030;-68
2021/10/03 10:24:43;;;;;;;12.05;3.17;;;;;;;19.88;36.50;100680.59;5013310;28;20030;-68
2021/10/03 10:27:29;;;;;;;6.40;2.67;;;;;;;19.71;36.26;100677.38;5013736;28;20113;-70
2021/10/03 10:29:58;;;;;;;9.05;3.42;;;;;;;19.81;35.43;100663.63;5001537;28;20054;-70
2021/10/03 10:32:27;;;;;;;4.68;2.70;;;;;;;20.20;35.21;100654.88;5011169;28;20041;-70
2021/10/03 10:35:07;;;;;;;8.30;2.63;;;;;;;20.29;35.52;100651.78;5010822;28;20100;-70
2021/10/03 10:40:25;;;;;;;7.00;2.65;;;;;;;20.06;35.16;100651.31;5017705;28;20461;-68
2021/10/03 10:43:03;;;;;;;4.75;2.47;;;;;;;20.13;35.68;100648.63;5023288;28;20029;-68
2021/10/03 10:45:29;;;;;;;11.18;3.13;;;;;;;20.15;35.78;100644.72;5004839;28;20042;-71
2021/10/03 10:48:10;;;;;;;5.32;2.78;;;;;;;20.30;36.48;100641.84;5004261;28;20033;-71
2021/10/03 10:50:44;;;;;;;6.72;2.88;;;;;;;20.50;34.77;100633.84;5017003;28;20053;-71
2021/10/03 10:53:20;;;;;;;7.60;2.95;;;;;;;20.60;34.96;100626.19;5011024;28;20048;-70
2021/10/03 10:56:03;;;;;;;6.45;2.83;;;;;;;20.32;34.90;100629.03;4993732;28;20038;-70
2021/10/03 10:58:31;;;;;;;4.75;2.78;;;;;;;20.11;35.50;100632.72;5016140;28;20553;-68
2021/10/03 11:01:13;;;;;;;7.30;2.88;;;;;;;20.01;36.01;100627.72;5016163;28;20311;-68
2021/10/03 11:03:41;;;;;;;4.85;2.58;;;;;;;19.76;35.31;100631.94;5013759;28;20026;-70
2021/10/03 11:06:25;;;;;;;6.97;2.60;;;;;;;20.08;35.05;100622.34;5014474;28;20089;-70
2021/10/03 11:08:56;;;;;;;10.63;2.63;;;;;;;20.07;34.88;100618.00;5009928;28;20042;-70
2021/10/03 11:11:25;;;;;;;6.43;2.50;;;;;;;20.11;34.33;100608.50;5006052;28;20042;-70
2021/10/03 11:13:53;;;;;;;8.93;2.75;;;;;;;20.08;34.52;100611.59;5006970;28;20042;-70
2021/10/03 11:16:29;;;;;;;8.05;2.88;;;;;;;20.37;33.95;100613.09;5009722;28;20034;-70
2021/10/03 11:19:06;;;;;;;5.47;2.63;;;;;;;19.97;35.05;100606.81;5006416;28;20057;-70
2021/10/03 11:21:36;;;;;;;6.07;2.30;;;;;;;20.07;34.87;100605.41;5010113;28;20048;-70
2021/10/03 11:24:07;;;;;;;8.93;2.20;;;;;;;19.83;34.26;100602.44;5015889;28;20101;-70